createdAt,value
2019-04-20T00:00:40.197Z,0
2019-04-20T00:01:35.693Z,0
2019-04-20T00:02:33.673Z,0
2019-04-20T00:03:37.906Z,0
2019-04-20T00:04:34.164Z,0
2019-04-20T00:05:29.026Z,0
2019-04-20T00:06:31.570Z,0
2019-04-20T00:07:29.896Z,0
2019-04-20T00:08:28.293Z,0
2019-04-20T00:09:26.446Z,0
2019-04-20T00:10:24.263Z,0
2019-04-20T00:11:26.171Z,0
2019-04-20T00:12:33.351Z,0
2019-04-20T00:13:28.509Z,0
2019-04-20T00:14:22.310Z,0
2019-04-20T00:15:15.602Z,0
2019-04-20T00:16:14.734Z,0
2019-04-20T00:17:13.703Z,0
2019-04-20T00:18:12.138Z,0
2019-04-20T00:19:10.689Z,0
2019-04-20T00:20:13.238Z,0
2019-04-20T00:21:09.938Z,0
2019-04-20T00:22:08.618Z,0
2019-04-20T00:23:05.812Z,0
2019-04-20T00:24:08.806Z,0
2019-04-20T00:25:05.428Z,0
2019-04-20T00:26:06.660Z,0
2019-04-20T00:27:25.239Z,0
2019-04-20T00:28:15.975Z,0
2019-04-20T00:29:17.214Z,0
2019-04-20T00:30:12.691Z,0
2019-04-20T00:31:12.204Z,0
2019-04-20T00:32:02.381Z,0
2019-04-20T00:33:01.675Z,0
2019-04-20T00:33:59.021Z,0
2019-04-20T00:34:49.369Z,0
2019-04-20T00:35:46.529Z,0
2019-04-20T00:36:45.357Z,0
2019-04-20T00:37:44.542Z,0
2019-04-20T00:38:48.228Z,0
2019-04-20T00:39:41.111Z,0
2019-04-20T00:40:39.644Z,0
2019-04-20T00:41:42.197Z,0
2019-04-20T00:42:44.090Z,0
2019-04-20T00:43:38.544Z,0
2019-04-20T00:44:38.018Z,0
2019-04-20T00:45:35.020Z,0
2019-04-20T00:46:36.840Z,0
2019-04-20T00:47:41.761Z,0
2019-04-20T00:48:37.255Z,0
2019-04-20T00:49:38.645Z,0
2019-04-20T00:50:40.091Z,0
2019-04-20T00:51:38.947Z,0
2019-04-20T00:52:32.514Z,0
2019-04-20T00:53:31.119Z,0
2019-04-20T00:54:20.642Z,0
2019-04-20T00:55:19.193Z,0
2019-04-20T00:56:18.203Z,0
2019-04-20T00:57:24.315Z,0
2019-04-20T00:58:23.287Z,0
2019-04-20T00:59:23.049Z,0
2019-04-20T01:00:30.898Z,0
2019-04-20T01:01:30.655Z,0
2019-04-20T01:02:25.564Z,0
2019-04-20T01:03:24.658Z,0
2019-04-20T01:04:23.672Z,0
2019-04-20T01:05:22.574Z,0
2019-04-20T01:06:21.974Z,0
2019-04-20T01:07:14.907Z,0
2019-04-20T01:08:04.668Z,0
2019-04-20T01:09:01.306Z,0
2019-04-20T01:10:00.183Z,0
2019-04-20T01:10:59.702Z,0
2019-04-20T01:11:56.631Z,0
2019-04-20T01:13:01.050Z,0
2019-04-20T01:13:58.789Z,0
2019-04-20T01:14:57.219Z,0
2019-04-20T01:15:58.688Z,0
2019-04-20T01:16:56.819Z,0
2019-04-20T01:17:48.450Z,0
2019-04-20T01:18:48.026Z,0
2019-04-20T01:19:48.787Z,0
2019-04-20T01:20:45.202Z,0
2019-04-20T01:21:49.733Z,0
2019-04-20T01:22:48.040Z,0
2019-04-20T01:23:47.918Z,0
2019-04-20T01:24:41.902Z,0
2019-04-20T01:25:40.858Z,0
2019-04-20T01:26:43.286Z,0
2019-04-20T01:27:47.344Z,0
2019-04-20T01:28:46.208Z,0
2019-04-20T01:29:39.146Z,0
2019-04-20T01:30:37.467Z,0
2019-04-20T01:31:36.074Z,0
2019-04-20T01:32:34.139Z,0
2019-04-20T01:33:39.957Z,0
2019-04-20T01:34:38.834Z,0
2019-04-20T01:35:39.017Z,0
2019-04-20T01:36:40.464Z,0
2019-04-20T01:37:32.684Z,0
2019-04-20T01:38:34.057Z,0
2019-04-20T01:39:25.976Z,0
2019-04-20T01:40:17.006Z,0
2019-04-20T01:41:16.089Z,0
2019-04-20T01:42:15.068Z,0
2019-04-20T01:43:14.154Z,0
2019-04-20T01:44:11.430Z,0
2019-04-20T01:45:14.382Z,0
2019-04-20T01:46:14.796Z,0
2019-04-20T01:47:08.646Z,0
2019-04-20T01:48:06.813Z,0
2019-04-20T01:49:07.767Z,0
2019-04-20T01:50:10.211Z,0
2019-04-20T01:51:09.710Z,0
2019-04-20T01:52:10.449Z,0
2019-04-20T01:53:09.869Z,0
2019-04-20T01:54:11.571Z,0
2019-04-20T01:55:15.573Z,0
2019-04-20T01:56:12.336Z,0
2019-04-20T01:57:04.580Z,0
2019-04-20T01:58:11.252Z,0
2019-04-20T01:59:10.033Z,0
2019-04-20T02:00:00.446Z,0
2019-04-20T02:00:51.539Z,0
2019-04-20T02:01:55.573Z,0
2019-04-20T02:02:52.007Z,0
2019-04-20T02:03:48.862Z,0
2019-04-20T02:04:47.248Z,0
2019-04-20T02:05:51.158Z,0
2019-04-20T02:06:46.990Z,0
2019-04-20T02:07:44.363Z,0
2019-04-20T02:08:40.023Z,0
2019-04-20T02:09:43.031Z,0
2019-04-20T02:10:44.017Z,0
2019-04-20T02:11:39.320Z,0
2019-04-20T02:12:36.199Z,0
2019-04-20T02:13:40.049Z,0
2019-04-20T02:14:37.606Z,0
2019-04-20T02:15:35.106Z,0
2019-04-20T02:16:35.327Z,0
2019-04-20T02:17:35.120Z,0
2019-04-20T02:18:35.772Z,0
2019-04-20T02:19:37.579Z,0
2019-04-20T02:20:42.695Z,0
2019-04-20T02:21:37.653Z,0
2019-04-20T02:22:36.991Z,0
2019-04-20T02:23:30.400Z,0
2019-04-20T02:24:17.820Z,0
2019-04-20T02:25:16.301Z,0
2019-04-20T02:26:15.903Z,0
2019-04-20T02:27:13.156Z,0
2019-04-20T02:28:25.460Z,0
2019-04-20T02:29:34.610Z,0
2019-04-20T02:30:37.894Z,0
2019-04-20T02:31:54.840Z,0
2019-04-20T02:33:41.791Z,0
2019-04-20T02:34:38.944Z,0
2019-04-20T02:35:34.204Z,0
2019-04-20T02:36:40.017Z,0
2019-04-20T02:37:35.567Z,0
2019-04-20T02:38:35.877Z,0
2019-04-20T02:39:37.310Z,0
2019-04-20T02:42:17.422Z,0
2019-04-20T02:43:24.731Z,0
2019-04-20T02:45:32.453Z,0
2019-04-20T02:46:30.950Z,0
2019-04-20T02:47:29.947Z,0
2019-04-20T02:48:21.465Z,0
2019-04-20T02:49:35.226Z,0
2019-04-20T02:51:21.871Z,0
2019-04-20T02:52:26.818Z,0
2019-04-20T02:54:44.756Z,0
2019-04-20T02:56:47.371Z,0
2019-04-20T02:57:45.469Z,0
2019-04-20T02:58:41.008Z,0
2019-04-20T03:00:29.536Z,0
2019-04-20T03:01:19.957Z,0
2019-04-20T03:02:18.005Z,0
2019-04-20T03:03:13.332Z,0
2019-04-20T03:04:03.255Z,0
2019-04-20T03:05:12.061Z,0
2019-04-20T03:06:08.343Z,0
2019-04-20T03:07:11.444Z,0
2019-04-20T03:08:13.464Z,0
2019-04-20T03:09:14.948Z,0
2019-04-20T03:10:10.599Z,0
2019-04-20T03:11:14.490Z,0
2019-04-20T03:12:28.521Z,0
2019-04-20T03:13:07.783Z,0
2019-04-20T03:14:01.994Z,0
2019-04-20T03:14:58.260Z,0
2019-04-20T03:16:03.290Z,0
2019-04-20T03:16:58.498Z,0
2019-04-20T03:18:02.059Z,0
2019-04-20T03:18:53.221Z,0
2019-04-20T03:19:52.249Z,0
2019-04-20T03:20:57.391Z,0
2019-04-20T03:21:56.732Z,0
2019-04-20T03:23:17.135Z,0
2019-04-20T03:23:58.829Z,0
2019-04-20T03:24:53.803Z,0
2019-04-20T03:25:54.101Z,0
2019-04-20T03:26:46.047Z,0
2019-04-20T03:27:40.858Z,0
2019-04-20T03:28:42.751Z,0
2019-04-20T03:29:46.757Z,0
2019-04-20T03:32:03.004Z,0
2019-04-20T03:35:40.204Z,0
2019-04-20T03:36:41.327Z,0
2019-04-20T03:37:36.174Z,0
2019-04-20T03:38:31.198Z,0
2019-04-20T03:39:28.322Z,0
2019-04-20T03:40:23.990Z,0
2019-04-20T03:41:17.387Z,0
2019-04-20T03:42:07.478Z,0
2019-04-20T03:43:05.604Z,0
2019-04-20T03:44:08.742Z,0
2019-04-20T03:45:07.470Z,0
2019-04-20T03:46:06.209Z,0
2019-04-20T03:47:03.329Z,0
2019-04-20T03:48:08.910Z,0
2019-04-20T03:49:12.812Z,0
2019-04-20T03:50:17.845Z,0
2019-04-20T03:51:12.520Z,0
2019-04-20T03:52:07.742Z,0
2019-04-20T03:53:12.636Z,4
2019-04-20T03:54:02.285Z,0
2019-04-20T03:54:58.338Z,0
2019-04-20T03:56:01.888Z,4
2019-04-20T03:57:12.147Z,0
2019-04-20T03:58:08.325Z,4
2019-04-20T03:58:54.549Z,4
2019-04-20T04:00:04.440Z,4
2019-04-20T04:00:54.135Z,4
2019-04-20T04:03:07.531Z,8
2019-04-20T04:03:58.289Z,8
2019-04-20T04:04:54.407Z,8
2019-04-20T04:05:46.708Z,8
2019-04-20T04:06:38.932Z,12
2019-04-20T04:07:38.499Z,16
2019-04-20T04:08:36.229Z,20
2019-04-20T04:09:36.941Z,20
2019-04-20T04:10:38.475Z,28
2019-04-20T04:11:37.741Z,28
2019-04-20T04:12:30.312Z,36
2019-04-20T04:13:23.075Z,40
2019-04-20T04:14:21.834Z,48
2019-04-20T04:15:20.917Z,52
2019-04-20T04:16:21.941Z,60
2019-04-20T04:17:20.061Z,72
2019-04-20T04:18:24.082Z,80
2019-04-20T04:19:21.247Z,92
2019-04-20T04:20:17.568Z,100
2019-04-20T04:21:18.878Z,116
2019-04-20T04:22:20.978Z,128
2019-04-20T04:23:28.531Z,140
2019-04-20T04:24:19.843Z,156
2019-04-20T04:25:15.788Z,172
2019-04-20T04:26:21.500Z,188
2019-04-20T04:27:18.386Z,204
2019-04-20T04:28:18.376Z,220
2019-04-20T04:29:24.469Z,240
2019-04-20T04:30:14.040Z,264
2019-04-20T04:31:15.561Z,288
2019-04-20T04:32:18.538Z,308
2019-04-20T04:33:39.544Z,332
2019-04-20T04:34:11.881Z,356
2019-04-20T04:35:09.015Z,384
2019-04-20T04:36:09.721Z,408
2019-04-20T04:37:10.264Z,436
2019-04-20T04:38:05.645Z,464
2019-04-20T04:39:08.541Z,492
2019-04-20T04:40:14.386Z,524
2019-04-20T04:42:10.058Z,584
2019-04-20T04:43:04.949Z,612
2019-04-20T04:43:58.621Z,648
2019-04-20T04:44:48.193Z,676
2019-04-20T04:45:38.641Z,708
2019-04-20T04:46:42.124Z,740
2019-04-20T04:47:36.741Z,772
2019-04-20T04:48:38.756Z,800
2019-04-20T04:49:38.088Z,836
2019-04-20T04:50:32.938Z,868
2019-04-20T04:51:42.339Z,900
2019-04-20T04:52:38.235Z,928
2019-04-20T04:53:41.454Z,960
2019-04-20T04:54:37.436Z,992
2019-04-20T04:55:35.125Z,1020
2019-04-20T04:56:26.496Z,1056
2019-04-20T04:57:22.649Z,1084
2019-04-20T04:58:21.560Z,1112
2019-04-20T04:59:21.302Z,1144
2019-04-20T05:00:24.590Z,1176
2019-04-20T05:01:22.289Z,1204
2019-04-20T05:02:15.932Z,1232
2019-04-20T05:03:32.652Z,1260
2019-04-20T05:04:31.408Z,1292
2019-04-20T05:05:30.690Z,1316
2019-04-20T05:06:26.203Z,1348
2019-04-20T05:07:18.706Z,1372
2019-04-20T05:08:15.317Z,1404
2019-04-20T05:09:10.191Z,1428
2019-04-20T05:10:05.645Z,1456
2019-04-20T05:11:04.770Z,1484
2019-04-20T05:12:07.042Z,1508
2019-04-20T05:13:01.100Z,1540
2019-04-20T05:14:03.942Z,1564
2019-04-20T05:15:07.483Z,1600
2019-04-20T05:16:07.355Z,1632
2019-04-20T05:17:11.029Z,1636
2019-04-20T05:18:11.306Z,1652
2019-04-20T05:19:13.125Z,1676
2019-04-20T05:20:09.126Z,1708
2019-04-20T05:21:09.725Z,1748
2019-04-20T05:22:09.125Z,1796
2019-04-20T05:23:03.674Z,1836
2019-04-20T05:25:51.833Z,1848
2019-04-20T05:26:49.195Z,1876
2019-04-20T05:27:45.048Z,1940
2019-04-20T05:28:33.206Z,2000
2019-04-20T05:29:26.962Z,2032
2019-04-20T05:30:20.573Z,2088
2019-04-20T05:31:23.053Z,2148
2019-04-20T05:32:29.370Z,2132
2019-04-20T05:33:24.206Z,2120
2019-04-20T05:34:38.152Z,2120
2019-04-20T05:35:30.457Z,2148
2019-04-20T05:36:27.862Z,2196
2019-04-20T05:47:21.260Z,2828
2019-04-20T05:48:16.236Z,2768
2019-04-20T05:49:21.797Z,2696
2019-04-20T05:50:12.919Z,2628
2019-04-20T05:51:23.828Z,2584
2019-04-20T05:52:28.756Z,2576
2019-04-20T05:53:12.804Z,2584
2019-04-20T05:54:13.382Z,2612
2019-04-20T05:55:14.238Z,2648
2019-04-20T05:56:08.269Z,2716
2019-04-20T05:57:14.233Z,2816
2019-04-20T05:58:08.617Z,2900
2019-04-20T05:59:04.354Z,2960
2019-04-20T06:00:06.662Z,3040
2019-04-20T06:01:05.337Z,3120
2019-04-20T06:02:03.269Z,3152
2019-04-20T06:02:57.613Z,3136
2019-04-20T06:03:57.581Z,3100
2019-04-20T06:05:03.946Z,3064
2019-04-20T06:06:03.079Z,3040
2019-04-20T06:06:59.443Z,3028
2019-04-20T06:07:53.356Z,2984
2019-04-20T06:08:59.017Z,2936
2019-04-20T06:09:53.947Z,2892
2019-04-20T06:10:49.255Z,2860
2019-04-20T06:12:02.546Z,2852
2019-04-20T06:12:45.256Z,2896
2019-04-20T06:13:37.717Z,2964
2019-04-20T06:14:39.097Z,3028
2019-04-20T06:15:42.667Z,3076
2019-04-20T06:16:45.065Z,3116
2019-04-20T06:17:43.164Z,3188
2019-04-20T06:18:33.465Z,3244
2019-04-20T06:19:51.698Z,3268
2019-04-20T06:21:36.442Z,3264
2019-04-20T06:22:34.637Z,3248
2019-04-20T06:23:38.351Z,3264
2019-04-20T06:24:39.182Z,3276
2019-04-20T06:25:43.641Z,3256
2019-04-20T06:27:29.893Z,3208
2019-04-20T06:28:21.886Z,3212
2019-04-20T06:29:18.191Z,3228
2019-04-20T06:30:18.744Z,3264
2019-04-20T06:31:23.727Z,3308
2019-04-20T06:32:26.955Z,3332
2019-04-20T06:33:30.451Z,3360
2019-04-20T06:35:30.146Z,3436
2019-04-20T06:36:20.256Z,3508
2019-04-20T06:37:09.379Z,3596
2019-04-20T06:38:26.196Z,3712
2019-04-20T06:39:15.881Z,3848
2019-04-20T06:40:29.114Z,4008
2019-04-20T06:41:20.918Z,4160
2019-04-20T06:42:14.610Z,4336
2019-04-20T06:43:03.903Z,4612
2019-04-20T06:44:08.023Z,4912
2019-04-20T06:45:03.820Z,5184
2019-04-20T06:46:09.425Z,5452
2019-04-20T06:47:08.162Z,5652
2019-04-20T06:47:56.931Z,5820
2019-04-20T06:48:58.416Z,5944
2019-04-20T06:49:56.266Z,6040
2019-04-20T06:50:48.141Z,6100
2019-04-20T06:51:52.627Z,6120
2019-04-20T06:52:45.142Z,6136
2019-04-20T06:53:48.544Z,6132
2019-04-20T06:54:48.130Z,6124
2019-04-20T06:55:48.254Z,6116
2019-04-20T06:56:47.016Z,6100
2019-04-20T06:57:44.862Z,6088
2019-04-20T06:59:03.518Z,6072
2019-04-20T06:59:42.814Z,6056
2019-04-20T07:02:29.337Z,6012
2019-04-20T07:03:35.697Z,5992
2019-04-20T07:04:38.213Z,5964
2019-04-20T07:05:21.998Z,5944
2019-04-20T07:06:33.746Z,5916
2019-04-20T07:07:18.248Z,5892
2019-04-20T07:08:32.891Z,5872
2019-04-20T07:09:30.642Z,5852
2019-04-20T07:10:17.656Z,5820
2019-04-20T07:11:18.188Z,5800
2019-04-20T07:12:06.255Z,5784
2019-04-20T07:13:02.542Z,5772
2019-04-20T07:13:54.267Z,5760
2019-04-20T07:14:55.168Z,5736
2019-04-20T07:15:56.508Z,5732
2019-04-20T07:17:04.732Z,5704
2019-04-20T07:18:07.934Z,5688
2019-04-20T07:19:00.623Z,5660
2019-04-20T07:19:55.271Z,5624
2019-04-20T07:21:11.545Z,5600
2019-04-20T07:22:10.298Z,5556
2019-04-20T07:22:59.279Z,5540
2019-04-20T07:24:03.008Z,5496
2019-04-20T07:24:56.268Z,5460
2019-04-20T07:25:54.037Z,5428
2019-04-20T07:26:48.988Z,5400
2019-04-20T07:27:47.769Z,5368
2019-04-20T07:28:52.353Z,5332
2019-04-20T07:29:45.846Z,5296
2019-04-20T07:30:44.712Z,5264
2019-04-20T07:31:39.217Z,5224
2019-04-20T07:32:48.067Z,5188
2019-04-20T07:33:39.139Z,5152
2019-04-20T07:34:38.360Z,5124
2019-04-20T07:35:35.290Z,5080
2019-04-20T07:36:37.286Z,5036
2019-04-20T07:39:32.588Z,4896
2019-04-20T07:40:35.344Z,4852
2019-04-20T07:41:41.746Z,4816
2019-04-20T07:42:34.445Z,4772
2019-04-20T07:43:25.355Z,4736
2019-04-20T07:44:34.090Z,4696
2019-04-20T07:45:25.733Z,4648
2019-04-20T07:46:34.452Z,4616
2019-04-20T07:47:29.557Z,4568
2019-04-20T07:48:20.190Z,4528
2019-04-20T07:49:17.708Z,4488
2019-04-20T07:50:12.765Z,4448
2019-04-20T07:51:06.293Z,4412
2019-04-20T07:51:55.544Z,4368
2019-04-20T07:53:08.564Z,4336
2019-04-20T07:54:16.398Z,4296
2019-04-20T07:56:10.094Z,4192
2019-04-20T07:57:03.318Z,4044
2019-04-20T07:57:57.406Z,3848
2019-04-20T07:58:52.372Z,3668
2019-04-20T08:00:04.446Z,3564
2019-04-20T08:01:07.443Z,3516
2019-04-20T08:02:07.622Z,3488
2019-04-20T08:03:02.855Z,3464
2019-04-20T08:04:00.930Z,3444
2019-04-20T08:04:54.889Z,3428
2019-04-20T08:05:46.374Z,3408
2019-04-20T08:06:42.953Z,3380
2019-04-20T08:07:46.184Z,3360
2019-04-20T08:08:48.633Z,3328
2019-04-20T08:09:40.623Z,3296
2019-04-20T08:10:37.919Z,3260
2019-04-20T08:12:49.753Z,3184
2019-04-20T08:14:44.253Z,3112
2019-04-20T08:16:45.997Z,3048
2019-04-20T08:17:49.326Z,3004
2019-04-20T08:18:43.872Z,2976
2019-04-20T08:19:34.529Z,2956
2019-04-20T08:20:30.825Z,2944
2019-04-20T08:21:34.801Z,2924
2019-04-20T08:22:33.209Z,2916
2019-04-20T08:23:33.325Z,2912
2019-04-20T08:24:27.512Z,2904
2019-04-20T08:25:23.389Z,2896
2019-04-20T08:26:16.111Z,2884
2019-04-20T08:27:09.833Z,2876
2019-04-20T08:28:06.236Z,2864
2019-04-20T08:29:15.324Z,2860
2019-04-20T08:30:22.660Z,2852
2019-04-20T08:31:16.623Z,2848
2019-04-20T08:32:17.667Z,2840
2019-04-20T08:33:17.638Z,2832
2019-04-20T08:34:34.934Z,2824
2019-04-20T08:35:22.094Z,2824
2019-04-20T08:36:16.098Z,2820
2019-04-20T08:37:10.882Z,2816
2019-04-20T08:38:36.484Z,2804
2019-04-20T08:39:19.793Z,2796
2019-04-20T08:40:11.798Z,2784
2019-04-20T08:41:02.402Z,2776
2019-04-20T08:42:05.515Z,2772
2019-04-20T08:43:18.541Z,2760
2019-04-20T08:44:08.062Z,2756
2019-04-20T08:45:03.522Z,2748
2019-04-20T08:45:58.512Z,2740
2019-04-20T08:47:18.073Z,2736
2019-04-20T08:48:02.594Z,2724
2019-04-20T08:48:55.660Z,2720
2019-04-20T08:50:02.934Z,2712
2019-04-20T08:50:50.323Z,2716
2019-04-20T08:52:01.197Z,2712
2019-04-20T08:53:08.715Z,2716
2019-04-20T08:53:51.619Z,2708
2019-04-20T08:54:41.281Z,2708
2019-04-20T08:55:41.201Z,2700
2019-04-20T08:56:35.897Z,2700
2019-04-20T08:57:24.764Z,2700
2019-04-20T08:58:23.004Z,2704
2019-04-20T08:59:21.654Z,2700
2019-04-20T09:00:29.229Z,2692
2019-04-20T09:01:21.394Z,2688
2019-04-20T09:02:19.065Z,2688
2019-04-20T09:03:21.849Z,2688
2019-04-20T09:04:20.606Z,2684
2019-04-20T09:05:28.520Z,2684
2019-04-20T09:06:26.098Z,2684
2019-04-20T09:07:17.574Z,2676
2019-04-20T09:08:17.742Z,2668
2019-04-20T09:09:37.424Z,2664
2019-04-20T09:10:27.997Z,2656
2019-04-20T09:11:19.303Z,2652
2019-04-20T09:12:18.963Z,2648
2019-04-20T09:13:15.389Z,2640
2019-04-20T09:14:05.447Z,2640
2019-04-20T09:15:01.565Z,2636
2019-04-20T09:16:00.058Z,2632
2019-04-20T09:17:02.599Z,2628
2019-04-20T09:18:01.833Z,2620
2019-04-20T09:19:02.424Z,2628
2019-04-20T09:20:02.496Z,2624
2019-04-20T09:21:00.925Z,2620
2019-04-20T09:21:57.191Z,2612
2019-04-20T09:23:06.678Z,2604
2019-04-20T09:24:14.422Z,2600
2019-04-20T09:25:17.583Z,2588
2019-04-20T09:26:08.673Z,2576
2019-04-20T09:27:00.759Z,2560
2019-04-20T09:27:50.680Z,2552
2019-04-20T09:28:56.591Z,2524
2019-04-20T09:29:58.009Z,2504
2019-04-20T09:30:50.383Z,2480
2019-04-20T09:31:51.718Z,2452
2019-04-20T09:32:48.289Z,2440
2019-04-20T09:33:50.997Z,2424
2019-04-20T09:34:52.971Z,2408
2019-04-20T09:35:47.169Z,2384
2019-04-20T09:36:45.661Z,2376
2019-04-20T09:37:47.014Z,2364
2019-04-20T09:38:43.933Z,2348
2019-04-20T09:39:35.659Z,2332
2019-04-20T09:40:44.726Z,2312
2019-04-20T09:41:46.449Z,2300
2019-04-20T09:42:24.711Z,2288
2019-04-20T09:43:23.813Z,2276
2019-04-20T09:44:24.465Z,2264
2019-04-20T09:45:27.306Z,2264
2019-04-20T09:46:19.955Z,2260
2019-04-20T09:47:23.221Z,2264
2019-04-20T09:48:23.888Z,2256
2019-04-20T09:49:23.563Z,2248
2019-04-20T09:50:27.137Z,2240
2019-04-20T09:51:29.994Z,2236
2019-04-20T09:52:20.532Z,2232
2019-04-20T09:53:24.398Z,2228
2019-04-20T09:54:25.370Z,2228
2019-04-20T09:55:21.519Z,2224
2019-04-20T09:56:19.242Z,2224
2019-04-20T09:57:24.112Z,2220
2019-04-20T09:58:15.238Z,2216
2019-04-20T09:59:21.833Z,2212
2019-04-20T10:00:15.175Z,2208
2019-04-20T10:01:13.024Z,2208
2019-04-20T10:02:06.535Z,2200
2019-04-20T10:02:58.208Z,2188
2019-04-20T10:03:57.055Z,2188
2019-04-20T10:04:55.571Z,2184
2019-04-20T10:05:53.805Z,2176
2019-04-20T10:06:52.024Z,2164
2019-04-20T10:07:55.616Z,2156
2019-04-20T10:08:54.143Z,2152
2019-04-20T10:09:48.960Z,2152
2019-04-20T10:10:47.600Z,2148
2019-04-20T10:11:46.802Z,2152
2019-04-20T10:12:44.021Z,2144
2019-04-20T10:13:43.875Z,2148
2019-04-20T10:14:41.091Z,2144
2019-04-20T10:15:39.731Z,2144
2019-04-20T10:16:39.928Z,2144
2019-04-20T10:17:38.536Z,2144
2019-04-20T10:18:41.248Z,2140
2019-04-20T10:19:37.353Z,2136
2019-04-20T10:20:36.207Z,2148
2019-04-20T10:21:31.859Z,2144
2019-04-20T10:22:30.838Z,2140
2019-04-20T10:23:30.220Z,2144
2019-04-20T10:24:28.505Z,2144
2019-04-20T10:25:26.654Z,2144
2019-04-20T10:26:24.985Z,2140
2019-04-20T10:27:24.275Z,2132
2019-04-20T10:28:23.378Z,2128
2019-04-20T10:29:21.598Z,2132
2019-04-20T10:30:19.257Z,2128
2019-04-20T10:31:17.917Z,2132
2019-04-20T10:32:17.831Z,2136
2019-04-20T10:33:15.511Z,2140
2019-04-20T10:34:13.914Z,2140
2019-04-20T10:35:15.075Z,2144
2019-04-20T10:36:11.893Z,2144
2019-04-20T10:37:09.790Z,2144
2019-04-20T10:38:09.574Z,2148
2019-04-20T10:39:06.881Z,2144
2019-04-20T10:40:06.726Z,2144
2019-04-20T10:41:10.995Z,2144
2019-04-20T10:42:04.232Z,2152
2019-04-20T10:43:03.078Z,2156
2019-04-20T10:44:00.750Z,2160
2019-04-20T10:45:00.644Z,2168
2019-04-20T10:45:57.440Z,2160
2019-04-20T10:46:56.548Z,2164
2019-04-20T10:47:54.960Z,2164
2019-04-20T10:50:34.799Z,2164
2019-04-20T10:51:33.632Z,2156
2019-04-20T10:52:32.039Z,2164
2019-04-20T10:53:30.635Z,2168
2019-04-20T10:54:30.228Z,2168
2019-04-20T10:55:27.770Z,2164
2019-04-20T10:56:27.509Z,2160
2019-04-20T10:57:25.761Z,2164
2019-04-20T11:19:11.497Z,2172
2019-04-20T11:20:09.638Z,2168
2019-04-20T11:21:07.278Z,2164
2019-04-20T11:22:06.173Z,2172
2019-04-20T11:23:04.835Z,2168
2019-04-20T11:24:04.578Z,2172
2019-04-20T11:25:02.216Z,2168
2019-04-20T11:26:00.625Z,2164
2019-04-20T11:27:00.408Z,2164
2019-04-20T11:27:58.508Z,2164
2019-04-20T11:28:57.950Z,2160
2019-04-20T11:29:56.039Z,2164
2019-04-20T11:30:54.333Z,2172
2019-04-20T11:31:54.711Z,2176
2019-04-20T11:32:51.900Z,2180
2019-04-20T11:33:49.990Z,2172
2019-04-20T11:34:49.161Z,2168
2019-04-20T11:35:48.486Z,2164
2019-04-20T11:36:46.043Z,2168
2019-04-20T11:37:44.932Z,2176
2019-04-20T11:38:43.304Z,2184
2019-04-20T11:39:43.061Z,2180
2019-04-20T11:40:41.169Z,2180
2019-04-20T11:41:39.172Z,2184
2019-04-20T11:42:37.805Z,2180
2019-04-20T11:43:37.681Z,2180
2019-04-20T11:44:36.471Z,2184
2019-04-20T11:45:33.710Z,2188
2019-04-20T11:46:32.506Z,2184
2019-04-20T11:47:31.576Z,2176
2019-04-20T11:48:29.706Z,2176
2019-04-20T11:49:28.639Z,2176
2019-04-20T11:50:27.518Z,2172
2019-04-20T11:51:25.791Z,2176
2019-04-20T11:52:25.237Z,2176
2019-04-20T11:53:26.298Z,2168
2019-04-20T11:54:22.057Z,2168
2019-04-20T11:55:20.640Z,2164
2019-04-20T11:56:24.703Z,2180
2019-04-20T11:57:17.804Z,2180
2019-04-20T11:58:16.508Z,2188
2019-04-20T11:59:15.055Z,2196
2019-04-20T12:00:13.570Z,2196
2019-04-20T12:01:16.080Z,2196
2019-04-20T12:02:14.630Z,2200
2019-04-20T12:03:15.770Z,2196
2019-04-20T12:04:18.533Z,2200
2019-04-20T12:05:19.753Z,2192
2019-04-20T12:06:08.436Z,2192
2019-04-20T12:07:04.715Z,2192
2019-04-20T12:08:03.001Z,2196
2019-04-20T12:09:01.313Z,2192
2019-04-20T12:10:07.867Z,2192
2019-04-20T12:11:01.755Z,2188
2019-04-20T12:12:08.726Z,2196
2019-04-20T12:12:57.231Z,2204
2019-04-20T12:13:54.783Z,2204
2019-04-20T12:14:54.663Z,2208
2019-04-20T12:15:51.944Z,2216
2019-04-20T12:16:50.438Z,2224
2019-04-20T12:17:49.466Z,2228
2019-04-20T12:18:48.277Z,2228
2019-04-20T12:19:46.161Z,2232
2019-04-20T12:20:45.045Z,2232
2019-04-20T12:21:43.514Z,2232
2019-04-20T12:22:42.379Z,2228
2019-04-20T12:23:41.996Z,2232
2019-04-20T12:24:40.310Z,2236
2019-04-20T12:25:40.837Z,2228
2019-04-20T12:26:36.648Z,2236
2019-04-20T12:27:35.143Z,2232
2019-04-20T12:28:33.775Z,2232
2019-04-20T12:29:33.989Z,2232
2019-04-20T12:30:31.321Z,2236
2019-04-20T12:31:31.385Z,2232
2019-04-20T12:32:35.075Z,2232
2019-04-20T12:33:28.518Z,2232
2019-04-20T12:34:26.445Z,2228
2019-04-20T12:35:24.753Z,2228
2019-04-20T12:36:23.923Z,2228
2019-04-20T12:37:22.910Z,2240
2019-04-20T12:38:21.055Z,2232
2019-04-20T12:39:19.374Z,2236
2019-04-20T12:40:17.848Z,2232
2019-04-20T12:41:17.934Z,2244
2019-04-20T12:42:15.240Z,2244
2019-04-20T12:43:15.125Z,2248
2019-04-20T12:44:14.067Z,2252
2019-04-20T12:45:11.515Z,2252
2019-04-20T12:46:09.871Z,2252
2019-04-20T12:47:09.895Z,2248
2019-04-20T12:48:07.978Z,2244
2019-04-20T12:49:07.489Z,2248
2019-04-20T12:50:05.484Z,2240
2019-04-20T12:51:03.721Z,2244
2019-04-20T12:52:04.767Z,2244
2019-04-20T12:53:00.716Z,2244
2019-04-20T12:54:00.448Z,2252
2019-04-20T12:55:00.898Z,2244
2019-04-20T12:55:56.817Z,2232
2019-04-20T12:56:56.277Z,2236
2019-04-20T12:57:54.468Z,2240
2019-04-20T12:58:53.605Z,2236
2019-04-20T12:59:52.315Z,2228
2019-04-20T13:00:50.135Z,2232
2019-04-20T13:01:49.163Z,2236
2019-04-20T13:02:47.412Z,2232
2019-04-20T13:03:46.069Z,2228
2019-04-20T13:04:45.680Z,2232
2019-04-20T13:05:43.582Z,2232
2019-04-20T13:06:42.777Z,2228
2019-04-20T13:07:44.710Z,2220
2019-04-20T13:08:44.357Z,2228
2019-04-20T13:09:38.790Z,2228
2019-04-20T13:10:36.775Z,2224
2019-04-20T13:11:46.105Z,2232
2019-04-20T13:12:34.311Z,2228
2019-04-20T13:13:34.529Z,2220
2019-04-20T13:14:32.631Z,2224
2019-04-20T13:15:30.388Z,2220
2019-04-20T13:16:30.242Z,2220
2019-04-20T13:17:28.283Z,2220
2019-04-20T13:18:27.328Z,2216
2019-04-20T13:19:24.992Z,2216
2019-04-20T13:20:23.791Z,2220
2019-04-20T13:21:22.946Z,2224
2019-04-20T13:22:21.145Z,2220
2019-04-20T13:23:20.326Z,2220
2019-04-20T13:24:18.811Z,2216
2019-04-20T13:25:16.925Z,2220
2019-04-20T13:26:15.628Z,2224
2019-04-20T13:27:14.358Z,2228
2019-04-20T13:28:12.882Z,2224
2019-04-20T13:29:11.153Z,2216
2019-04-20T13:30:09.920Z,2224
2019-04-20T13:31:08.469Z,2224
2019-04-20T13:32:07.664Z,2224
2019-04-20T13:33:05.920Z,2224
2019-04-20T13:34:05.381Z,2228
2019-04-20T13:36:44.716Z,2228
2019-04-20T13:37:44.011Z,2224
2019-04-20T13:38:42.012Z,2220
2019-04-20T13:39:40.845Z,2224
2019-04-20T13:40:39.770Z,2220
2019-04-20T13:41:38.094Z,2224
2019-04-20T13:42:38.072Z,2220
2019-04-20T14:05:38.497Z,2204
2019-04-20T14:06:37.272Z,2208
2019-04-20T14:07:35.610Z,2204
2019-04-20T14:08:33.837Z,2200
2019-04-20T14:09:33.290Z,2196
2019-04-20T14:10:31.440Z,2192
2019-04-20T14:11:31.209Z,2196
2019-04-20T14:12:34.968Z,2192
2019-04-20T14:13:35.160Z,2192
2019-04-20T14:14:26.046Z,2188
2019-04-20T14:15:24.948Z,2184
2019-04-20T14:16:23.524Z,2180
2019-04-20T14:17:23.408Z,2188
2019-04-20T14:18:20.890Z,2180
2019-04-20T14:19:19.458Z,2184
2019-04-20T14:20:20.254Z,2184
2019-04-20T14:21:18.385Z,2184
2019-04-20T14:23:57.214Z,2172
2019-04-20T14:24:55.675Z,2172
2019-04-20T14:25:54.645Z,2172
2019-04-20T14:26:52.947Z,2160
2019-04-20T14:27:52.595Z,2156
2019-04-20T14:28:51.269Z,2160
2019-04-20T14:29:49.017Z,2160
2019-04-20T14:30:47.871Z,2152
2019-04-20T14:33:12.950Z,2152
2019-04-20T14:34:12.906Z,2148
2019-04-20T14:35:11.310Z,2140
2019-04-20T14:36:10.713Z,2144
2019-04-20T14:37:08.793Z,2148
2019-04-20T14:38:07.886Z,2140
2019-04-20T14:51:07.689Z,2112
2019-04-20T14:52:06.324Z,2108
2019-04-20T14:53:04.962Z,2104
2019-04-20T14:54:03.329Z,2104
2019-04-20T14:55:01.716Z,2100
2019-04-20T14:55:59.796Z,2104
2019-04-20T14:56:59.142Z,2100
2019-04-20T14:57:57.448Z,2092
2019-04-20T14:58:56.113Z,2096
2019-04-20T14:59:55.877Z,2088
2019-04-20T15:00:54.848Z,2092
2019-04-20T15:01:52.472Z,2084
2019-04-20T15:02:51.850Z,2080
2019-04-20T15:03:57.086Z,2088